Portada
METAR-TAF:

METAR-TAF

Aeroports :

Gulkana, Alaska, Estats Units d'Amèrica

latitud: 62-09N, longitud: 145-27W, altitud: 481 m

Observació

L'informe es va fer fa 1 hora i 1 minuts, a les 08:53 UTC
Vent 5 kt del Nord
Temperatura -13°C
Humitat 78%
Pressió 1010 hPa
Visibilitat: 16.1 km
Cel clar

METAR: PAGK 150853Z AUTO 35005KT 10SM CLR M13/M16 A2983 RMK AO2 SLP159 T11331156 411221217 58001 TSNO

Hora: 00:54 (09:54 UTC)

Pronòstic

L'informe es va fer fa 4 hores i 30 minuts, a les 05:24 UTC
Pronòstic vàlid del 15 a les 06 UTC al 16 a les 06 UTC
Vent 3 kt amb direcció variable
Visibilitat: 10 km
Núvols disperses a una alçada de 12000 ft
A partir de les 15 a les 1200 UTC
Vent 3 kt amb direcció variable
Visibilitat: 10 km
Escasses núvols a una alçada de 500 ft
Núvols disperses a una alçada de 20000 ft
boira a les proximitats

TAF: PAGK 150524Z 1506/1606 VRB03KT P6SM SCT120 FM151200 VRB03KT P6SM VCFG FEW005 SCT200

Observacions i pronòstics meteorològics de més de 4000 aeroports (METAR i TAF).

Les estacions disponibles són els punts grocs i vermells al mapa.

Posi el ratolí al punt desitjat per veure el nom de l'estació.

Feu clic per veure les observacions i els pronòstics meteorològics.

Per canviar el mapa: feu clic els botons verds amb una creu de color negre per apropar; al botó verd amb un guió per allunyar la imatge; o en les fletxes verdes per a mapes adjacents.


METAR-TAF: